Time;durP1;ratioP1;P1;durP2;ratioP2;P2;SDS_P1;SDS_P2;PMS_P1;PMS_P2;Temp;Humidity;BMP_temperature;BMP_pressure;BME280_temperature;BME280_humidity;BME280_pressure;Samples;Min_cycle;Max_cycle;Signal;HPM_P1;HPM_P2
2023/05/14 00:00:33;;;;;;;;;;;;;;;-142.75;100.00;77349.88;5008335;28;19960;-66
2023/05/14 00:02:58;;;;;;;;;;;;;;;-142.75;100.00;77353.81;5006034;28;20008;-66
2023/05/14 00:05:23;;;;;;;;;;;;;;;-142.75;100.00;77367.59;5006985;28;19975;-65
2023/05/14 00:07:48;;;;;;;;;;;;;;;-142.75;100.00;77361.69;5003026;28;20550;-67
2023/05/14 00:10:14;;;;;;;;;;;;;;;-142.75;100.00;77377.44;5006574;28;19914;-67
2023/05/14 00:12:39;;;;;;;;;;;;;;;-142.75;100.00;77365.63;5018388;28;19920;-66
2023/05/14 00:15:04;;;;;;;;;;;;;;;-142.75;100.00;77363.66;5006214;28;19925;-65
2023/05/14 00:17:30;;;;;;;;;;;;;;;-142.75;100.00;77359.72;5014709;28;19965;-66
2023/05/14 00:19:55;;;;;;;;;;;;;;;-142.75;100.00;77369.56;5007608;28;19917;-66
2023/05/14 00:22:20;;;;;;;;;;;;;;;-142.75;100.00;77365.63;5018471;28;19919;-67
2023/05/14 00:24:45;;;;;;;;;;;;;;;-142.75;100.00;77363.66;5002364;28;19935;-65
2023/05/14 00:27:11;;;;;;;;;;;;;;;-142.75;100.00;77371.53;5008566;28;19963;-66
2023/05/14 00:29:36;;;;;;;;;;;;;;;-142.75;100.00;77377.44;5019801;28;19921;-67
2023/05/14 00:32:01;;;;;;;;;;;;;;;-142.75;100.00;77365.63;5005978;28;20391;-65
2023/05/14 00:34:27;;;;;;;;;;;;;;;-142.75;100.00;77379.41;5006845;28;19936;-65
2023/05/14 00:36:52;;;;;;;;;;;;;;;-142.75;100.00;77369.56;5008021;28;20007;-66
2023/05/14 00:39:17;;;;;;;;;;;;;;;-142.75;100.00;77363.66;5001010;28;20430;-66
2023/05/14 00:41:42;;;;;;;;;;;;;;;-142.75;100.00;77371.53;5004533;28;19957;-66
2023/05/14 00:44:08;;;;;;;;;;;;;;;-142.75;100.00;77387.28;5005596;28;19928;-66
2023/05/14 00:46:33;;;;;;;;;;;;;;;-142.75;100.00;77373.50;5005284;28;19920;-65
2023/05/14 00:48:58;;;;;;;;;;;;;;;-142.75;100.00;77371.53;5005001;28;19957;-66
2023/05/14 00:51:24;;;;;;;;;;;;;;;-142.75;100.00;77357.75;5006747;28;19917;-65
2023/05/14 00:53:49;;;;;;;;;;;;;;;-142.75;100.00;77375.47;5007533;28;19936;-65
2023/05/14 00:56:14;;;;;;;;;;;;;;;-142.75;100.00;77381.38;5007634;28;20406;-65
2023/05/14 00:58:40;;;;;;;;;;;;;;;-142.75;100.00;77365.63;5006212;28;20367;-66
2023/05/14 01:01:05;;;;;;;;;;;;;;;-142.75;100.00;77379.41;5006956;28;19913;-66
2023/05/14 01:03:31;;;;;;;;;;;;;;;-142.75;100.00;77381.38;5007509;28;20525;-66
2023/05/14 01:06:02;;;;;;;;;;;;;;;-142.75;100.00;77381.38;5006311;28;20562;-66
2023/05/14 01:08:43;;;;;;;;;;;;;;;-142.75;100.00;77379.41;5005691;28;20298;-66
2023/05/14 01:11:27;;;;;;;;;;;;;;;-142.75;100.00;77379.41;5007261;28;19914;-66
2023/05/14 01:13:53;;;;;;;;;;;;;;;-142.75;100.00;77401.06;5009731;28;19951;-66
2023/05/14 01:16:19;;;;;;;;;;;;;;;-142.75;100.00;77377.44;5013127;28;20020;-67
2023/05/14 01:18:45;;;;;;;;;;;;;;;-142.75;100.00;77389.25;5003040;28;19913;-67
2023/05/14 01:21:29;;;;;;;;;;;;;;;-142.75;100.00;77391.22;4997262;28;19944;-68
2023/05/14 01:23:54;;;;;;;;;;;;;;;-142.75;100.00;77389.25;5004869;28;19913;-66
2023/05/14 01:26:20;;;;;;;;;;;;;;;-142.75;100.00;77385.31;5005414;28;19920;-67
2023/05/14 01:28:47;;;;;;;;;;;;;;;-142.75;100.00;77393.19;5004202;28;19971;-67
2023/05/14 01:31:16;;;;;;;;;;;;;;;-142.75;100.00;77395.16;5004391;28;20314;-67
2023/05/14 01:33:42;;;;;;;;;;;;;;;-142.75;100.00;77408.94;5004718;28;19913;-68
2023/05/14 01:36:08;;;;;;;;;;;;;;;-142.75;100.00;77408.94;5003813;28;19930;-67
2023/05/14 01:38:35;;;;;;;;;;;;;;;-142.75;100.00;77408.94;5004206;28;20416;-67
2023/05/14 01:41:00;;;;;;;;;;;;;;;-142.75;100.00;77401.06;5005349;28;19960;-66
2023/05/14 01:43:26;;;;;;;;;;;;;;;-142.75;100.00;77416.81;5005201;28;19956;-67
2023/05/14 01:45:51;;;;;;;;;;;;;;;-142.75;100.00;77430.59;5005314;28;19980;-67
2023/05/14 01:48:16;;;;;;;;;;;;;;;-142.75;100.00;77430.59;5006148;28;19913;-67
2023/05/14 01:50:41;;;;;;;;;;;;;;;-142.75;100.00;77420.75;5005590;28;19917;-66
2023/05/14 01:53:07;;;;;;;;;;;;;;;-142.75;100.00;77418.78;5006111;28;19922;-67
2023/05/14 01:55:32;;;;;;;;;;;;;;;-142.75;100.00;77424.69;5008467;28;19984;-68
2023/05/14 01:57:57;;;;;;;;;;;;;;;-142.75;100.00;77405.00;5008797;28;19956;-68
2023/05/14 02:00:24;;;;;;;;;;;;;;;-142.75;100.00;77420.75;5024099;28;20509;-68
2023/05/14 02:02:49;;;;;;;;;;;;;;;-142.75;100.00;77405.00;5009359;28;20346;-66
2023/05/14 02:05:15;;;;;;;;;;;;;;;-142.75;100.00;77414.84;5008805;28;19913;-68
2023/05/14 02:07:40;;;;;;;;;;;;;;;-142.75;100.00;77399.09;5008824;28;19940;-68
2023/05/14 02:10:06;;;;;;;;;;;;;;;-142.75;100.00;77405.00;5008739;28;19913;-68
2023/05/14 02:12:31;;;;;;;;;;;;;;;-142.75;100.00;77410.91;5008273;28;20349;-67
2023/05/14 02:14:56;;;;;;;;;;;;;;;-142.75;100.00;77424.69;5009083;28;19917;-67
2023/05/14 02:17:21;;;;;;;;;;;;;;;-142.75;100.00;77410.91;5009582;28;19924;-67
2023/05/14 02:19:46;;;;;;;;;;;;;;;-142.75;100.00;77414.84;5008704;28;19914;-67
2023/05/14 02:22:12;;;;;;;;;;;;;;;-142.75;100.00;77416.81;5008273;28;19913;-68
2023/05/14 02:24:37;;;;;;;;;;;;;;;-142.75;100.00;77408.94;5008583;28;19914;-67
2023/05/14 02:27:02;;;;;;;;;;;;;;;-142.75;100.00;77424.69;5008100;28;19917;-67
2023/05/14 02:29:28;;;;;;;;;;;;;;;-142.75;100.00;77436.50;5008474;28;20018;-68
2023/05/14 02:31:53;;;;;;;;;;;;;;;-142.75;100.00;77436.50;5008467;28;20383;-67
2023/05/14 02:34:18;;;;;;;;;;;;;;;-142.75;100.00;77426.66;5008213;28;19917;-67
2023/05/14 02:36:43;;;;;;;;;;;;;;;-142.75;100.00;77428.63;5008187;28;19940;-68
2023/05/14 02:39:09;;;;;;;;;;;;;;;-142.75;100.00;77422.72;5008391;28;20032;-69
2023/05/14 02:41:34;;;;;;;;;;;;;;;-142.75;100.00;77424.69;5008006;28;19974;-69
2023/05/14 02:43:59;;;;;;;;;;;;;;;-142.75;100.00;77420.75;5007968;28;20285;-67
2023/05/14 02:46:25;;;;;;;;;;;;;;;-142.75;100.00;77428.63;5023159;28;19943;-66
2023/05/14 02:48:50;;;;;;;;;;;;;;;-142.75;100.00;77430.59;5008774;28;19921;-67
2023/05/14 02:51:15;;;;;;;;;;;;;;;-142.75;100.00;77434.53;5007810;28;19952;-66
2023/05/14 02:53:41;;;;;;;;;;;;;;;-142.75;100.00;77444.38;5006603;28;19920;-67
2023/05/14 02:56:06;;;;;;;;;;;;;;;-142.75;100.00;77428.63;5007294;28;20000;-68
2023/05/14 02:58:32;;;;;;;;;;;;;;;-142.75;100.00;77401.06;5007874;28;19917;-67
2023/05/14 03:00:57;;;;;;;;;;;;;;;-142.75;100.00;77379.41;5007413;28;20318;-68
2023/05/14 03:03:22;;;;;;;;;;;;;;;-142.75;100.00;77389.25;5007666;28;19924;-69
2023/05/14 03:05:47;;;;;;;;;;;;;;;-142.75;100.00;77385.31;5019712;28;19917;-69
2023/05/14 03:08:13;;;;;;;;;;;;;;;-142.75;100.00;77385.31;5005477;28;19933;-67
2023/05/14 03:10:38;;;;;;;;;;;;;;;-142.75;100.00;77377.44;5003833;28;20367;-67
2023/05/14 03:13:03;;;;;;;;;;;;;;;-142.75;100.00;77391.22;5005023;28;20421;-69
2023/05/14 03:15:28;;;;;;;;;;;;;;;-142.75;100.00;77391.22;5007187;28;19952;-65
2023/05/14 03:17:54;;;;;;;;;;;;;;;-142.75;100.00;77405.00;5006849;28;19960;-66
2023/05/14 03:20:19;;;;;;;;;;;;;;;-142.75;100.00;77393.19;5007376;28;20016;-67
2023/05/14 03:22:44;;;;;;;;;;;;;;;-142.75;100.00;77385.31;5005863;28;19917;-67
2023/05/14 03:25:10;;;;;;;;;;;;;;;-142.75;100.00;77397.13;5006767;28;19935;-69
2023/05/14 03:27:35;;;;;;;;;;;;;;;-142.75;100.00;77383.34;5006979;28;19924;-68
2023/05/14 03:30:00;;;;;;;;;;;;;;;-142.75;100.00;77406.97;5021994;28;19914;-67
2023/05/14 03:32:25;;;;;;;;;;;;;;;-142.75;100.00;77401.06;5005586;28;20007;-67
2023/05/14 03:34:50;;;;;;;;;;;;;;;-142.75;100.00;77375.47;5005503;28;19924;-67
2023/05/14 03:37:16;;;;;;;;;;;;;;;-142.75;100.00;77375.47;5006455;28;20496;-67
2023/05/14 03:39:41;;;;;;;;;;;;;;;-142.75;100.00;77397.13;5004159;28;20363;-68
2023/05/14 03:42:06;;;;;;;;;;;;;;;-142.75;100.00;77385.31;5005385;28;19913;-67
2023/05/14 03:44:31;;;;;;;;;;;;;;;-142.75;100.00;77375.47;5006927;28;19917;-68
2023/05/14 03:46:56;;;;;;;;;;;;;;;-142.75;100.00;77389.25;5007641;28;19921;-67
2023/05/14 03:49:22;;;;;;;;;;;;;;;-142.75;100.00;77385.31;5007464;28;19917;-69
2023/05/14 03:51:47;;;;;;;;;;;;;;;-142.75;100.00;77381.38;5006993;28;19914;-67
2023/05/14 03:54:12;;;;;;;;;;;;;;;-142.75;100.00;77385.31;5006648;28;19982;-68
2023/05/14 03:56:37;;;;;;;;;;;;;;;-142.75;100.00;77375.47;5006596;28;19975;-69
2023/05/14 03:59:02;;;;;;;;;;;;;;;-142.75;100.00;77359.72;5006649;28;19922;-67
2023/05/14 04:01:28;;;;;;;;;;;;;;;-142.75;100.00;77369.56;5004855;28;19997;-68
2023/05/14 04:03:53;;;;;;;;;;;;;;;-142.75;100.00;77373.50;5006689;28;19948;-68
2023/05/14 04:06:18;;;;;;;;;;;;;;;-142.75;100.00;77367.59;5006513;28;20003;-67
2023/05/14 04:08:43;;;;;;;;;;;;;;;-142.75;100.00;77357.75;5004851;28;19913;-67
2023/05/14 04:11:09;;;;;;;;;;;;;;;-142.75;100.00;77367.59;5006165;28;19967;-67
2023/05/14 04:13:34;;;;;;;;;;;;;;;-142.75;100.00;77369.56;5004092;28;20677;-67
2023/05/14 04:15:59;;;;;;;;;;;;;;;-142.75;100.00;77375.47;5005570;28;20367;-67
2023/05/14 04:18:24;;;;;;;;;;;;;;;-142.75;100.00;77369.56;5021581;28;19929;-66
2023/05/14 04:20:49;;;;;;;;;;;;;;;-142.75;100.00;77361.69;5005689;28;19913;-67
2023/05/14 04:23:15;;;;;;;;;;;;;;;-142.75;100.00;77381.38;5004749;28;19920;-67
2023/05/14 04:25:40;;;;;;;;;;;;;;;-142.75;100.00;77389.25;5019421;28;19940;-67
2023/05/14 04:28:05;;;;;;;;;;;;;;;-142.75;100.00;77391.22;5006247;28;20008;-68
2023/05/14 04:30:30;;;;;;;;;;;;;;;-142.75;100.00;77389.25;5021120;28;19986;-67
2023/05/14 04:32:55;;;;;;;;;;;;;;;-142.75;100.00;77379.41;5004783;28;19917;-67
2023/05/14 04:35:21;;;;;;;;;;;;;;;-142.75;100.00;77367.59;5006172;28;20406;-67
2023/05/14 04:37:47;;;;;;;;;;;;;;;-142.75;100.00;77365.63;5004742;28;19913;-67
2023/05/14 04:40:14;;;;;;;;;;;;;;;-142.75;100.00;77355.78;5005957;28;20330;-68
2023/05/14 04:42:39;;;;;;;;;;;;;;;-142.75;100.00;77359.72;5006291;28;20528;-68
2023/05/14 04:45:05;;;;;;;;;;;;;;;-142.75;100.00;77338.06;5005865;28;19913;-67
2023/05/14 04:47:31;;;;;;;;;;;;;;;-142.75;100.00;77343.97;5006588;28;19989;-66
2023/05/14 04:49:56;;;;;;;;;;;;;;;-142.75;100.00;77353.81;5006032;28;20334;-66
2023/05/14 04:52:22;;;;;;;;;;;;;;;-142.75;100.00;77326.25;5006147;28;20391;-67
2023/05/14 04:54:47;;;;;;;;;;;;;;;-142.75;100.00;77336.09;5005639;28;19932;-68
2023/05/14 04:57:12;;;;;;;;;;;;;;;-142.75;100.00;77322.31;5005522;28;19997;-68
2023/05/14 04:59:37;;;;;;;;;;;;;;;-142.75;100.00;77310.50;5004752;28;19920;-68
2023/05/14 05:02:02;;;;;;;;;;;;;;;-142.75;100.00;77312.47;5005558;28;19913;-67
2023/05/14 05:04:28;;;;;;;;;;;;;;;-142.75;100.00;77310.50;5005807;28;19913;-67
2023/05/14 05:06:53;;;;;;;;;;;;;;;-142.75;100.00;77310.50;5002838;28;19913;-68
2023/05/14 05:09:18;;;;;;;;;;;;;;;-142.75;100.00;77294.75;5005798;28;19995;-66
2023/05/14 05:11:43;;;;;;;;;;;;;;;-142.75;100.00;77275.06;5005426;28;19967;-67
2023/05/14 05:14:09;;;;;;;;;;;;;;;-142.75;100.00;77296.72;5005586;28;20004;-67
2023/05/14 05:16:34;;;;;;;;;;;;;;;-142.75;100.00;77277.03;5005549;28;20440;-69
2023/05/14 05:18:59;;;;;;;;;;;;;;;-142.75;100.00;77269.16;5006351;28;20576;-67
2023/05/14 05:21:24;;;;;;;;;;;;;;;-142.75;100.00;77243.56;5005685;28;20390;-67
2023/05/14 05:23:50;;;;;;;;;;;;;;;-142.75;100.00;77241.59;5005687;28;20438;-67
2023/05/14 05:26:15;;;;;;;;;;;;;;;-142.75;100.00;77237.66;5003552;28;19913;-66
2023/05/14 05:28:40;;;;;;;;;;;;;;;-142.75;100.00;77231.75;5007549;28;19917;-68
2023/05/14 05:31:06;;;;;;;;;;;;;;;-142.75;100.00;77216.00;5004102;28;19917;-68
2023/05/14 05:33:31;;;;;;;;;;;;;;;-142.75;100.00;77231.75;5007555;28;19917;-68
2023/05/14 05:35:56;;;;;;;;;;;;;;;-142.75;100.00;77227.81;5007964;28;20417;-67
2023/05/14 05:38:21;;;;;;;;;;;;;;;-142.75;100.00;77210.09;5008893;28;19939;-68
2023/05/14 05:40:47;;;;;;;;;;;;;;;-142.75;100.00;77223.88;5008179;28;20389;-69
2023/05/14 05:43:13;;;;;;;;;;;;;;;-142.75;100.00;77208.13;5009094;28;19917;-67
2023/05/14 05:45:38;;;;;;;;;;;;;;;-142.75;100.00;77208.13;5008243;28;19955;-68
2023/05/14 05:48:04;;;;;;;;;;;;;;;-142.75;100.00;77219.94;5010016;28;19956;-67
2023/05/14 05:50:30;;;;;;;;;;;;;;;-142.75;100.00;77231.75;5024337;28;19949;-67
2023/05/14 05:52:57;;;;;;;;;;;;;;;-142.75;100.00;77241.59;5008860;28;20310;-65
2023/05/14 05:55:23;;;;;;;;;;;;;;;-142.75;100.00;77235.69;5009006;28;20013;-67
2023/05/14 05:57:48;;;;;;;;;;;;;;;-142.75;100.00;77235.69;5024190;28;19996;-66
2023/05/14 06:00:14;;;;;;;;;;;;;;;-142.75;100.00;77227.81;5009146;28;20233;-67
2023/05/14 06:02:42;;;;;;;;;;;;;;;-142.75;100.00;77253.41;5005205;28;19913;-68
2023/05/14 06:05:08;;;;;;;;;;;;;;;-142.75;100.00;77241.59;5004774;28;19964;-67
2023/05/14 06:07:34;;;;;;;;;;;;;;;-142.75;100.00;77241.59;5005505;28;19960;-66
2023/05/14 06:09:59;;;;;;;;;;;;;;;-142.75;100.00;77237.66;5007158;28;19917;-69
2023/05/14 06:12:24;;;;;;;;;;;;;;;-142.75;100.00;77221.91;5007799;28;20000;-70
2023/05/14 06:14:50;;;;;;;;;;;;;;;-142.75;100.00;77206.16;5007899;28;19932;-65
2023/05/14 06:17:15;;;;;;;;;;;;;;;-142.75;100.00;77192.38;5009056;28;20002;-67
2023/05/14 06:19:40;;;;;;;;;;;;;;;-142.75;100.00;77210.09;5008758;28;19928;-63
2023/05/14 06:22:05;;;;;;;;;;;;;;;-142.75;100.00;77188.44;5008359;28;19913;-69
2023/05/14 06:24:31;;;;;;;;;;;;;;;-142.75;100.00;77223.88;5008467;28;19922;-67
2023/05/14 06:26:57;;;;;;;;;;;;;;;-142.75;100.00;77243.56;5008265;28;19913;-67
2023/05/14 06:29:22;;;;;;;;;;;;;;;-142.75;100.00;77241.59;5008496;28;19939;-68
2023/05/14 06:31:47;;;;;;;;;;;;;;;-142.75;100.00;77235.69;5008303;28;19967;-69
2023/05/14 06:34:12;;;;;;;;;;;;;;;-142.75;100.00;77212.06;5007948;28;20002;-65
2023/05/14 06:36:37;;;;;;;;;;;;;;;-142.75;100.00;77212.06;5007504;28;19917;-67
2023/05/14 06:39:03;;;;;;;;;;;;;;;-142.75;100.00;77208.13;5007394;28;19913;-68
2023/05/14 06:41:28;;;;;;;;;;;;;;;-142.75;100.00;77186.47;5007413;28;19940;-66
2023/05/14 06:43:54;;;;;;;;;;;;;;;-142.75;100.00;77176.63;5008227;28;19921;-67
2023/05/14 06:46:19;;;;;;;;;;;;;;;-142.75;100.00;77180.56;5006622;28;19913;-67
2023/05/14 06:48:44;;;;;;;;;;;;;;;-142.75;100.00;77180.56;5008964;28;19913;-66
2023/05/14 06:51:12;;;;;;;;;;;;;;;-142.75;100.00;77180.56;5008004;28;19913;-68
2023/05/14 06:53:37;;;;;;;;;;;;;;;-142.75;100.00;77172.69;5022652;28;19921;-67
2023/05/14 06:56:02;;;;;;;;;;;;;;;-142.75;100.00;77186.47;5005944;28;19925;-68
2023/05/14 06:58:27;;;;;;;;;;;;;;;-142.75;100.00;77172.69;5007800;28;19980;-65
2023/05/14 07:00:53;;;;;;;;;;;;;;;-142.75;100.00;77184.50;5008009;28;19928;-67
2023/05/14 07:03:18;;;;;;;;;;;;;;;-142.75;100.00;77164.81;5004259;28;19959;-68
2023/05/14 07:05:45;;;;;;;;;;;;;;;-142.75;100.00;77156.94;5005456;28;19983;-66
2023/05/14 07:08:10;;;;;;;;;;;;;;;-142.75;100.00;77156.94;5007206;28;19913;-67
2023/05/14 07:10:35;;;;;;;;;;;;;;;-142.75;100.00;77141.19;5003479;28;20546;-66
2023/05/14 07:13:02;;;;;;;;;;;;;;;-142.75;100.00;77137.25;5006467;28;19913;-66
2023/05/14 07:15:27;;;;;;;;;;;;;;;-142.75;100.00;77137.25;5005536;28;19917;-66
2023/05/14 07:17:52;;;;;;;;;;;;;;;-142.75;100.00;77123.47;5011357;28;19928;-68
2023/05/14 07:20:17;;;;;;;;;;;;;;;-142.75;100.00;77121.50;5005556;28;19968;-66
2023/05/14 07:22:42;;;;;;;;;;;;;;;-142.75;100.00;77119.53;5004750;28;20025;-67
2023/05/14 07:25:08;;;;;;;;;;;;;;;-142.75;100.00;77109.69;5016866;28;19967;-68
2023/05/14 07:27:33;;;;;;;;;;;;;;;-142.75;100.00;77080.16;5006655;28;19967;-66
2023/05/14 07:29:58;;;;;;;;;;;;;;;-142.75;100.00;77086.06;5006867;28;19980;-66
2023/05/14 07:32:24;;;;;;;;;;;;;;;-142.75;100.00;77074.25;5006669;28;20613;-66
2023/05/14 07:34:49;;;;;;;;;;;;;;;-142.75;100.00;77052.59;5007144;28;19975;-66
2023/05/14 07:37:14;;;;;;;;;;;;;;;-142.75;100.00;77019.13;5006101;28;19921;-67
2023/05/14 07:39:40;;;;;;;;;;;;;;;-142.75;100.00;77028.97;5005661;28;19932;-65
2023/05/14 07:42:05;;;;;;;;;;;;;;;-142.75;100.00;77046.69;5005426;28;20011;-67
2023/05/14 07:44:30;;;;;;;;;;;;;;;-142.75;100.00;77074.25;5021994;28;20274;-66
2023/05/14 07:46:56;;;;;;;;;;;;;;;-142.75;100.00;77066.38;5007072;28;19968;-66
2023/05/14 07:49:21;;;;;;;;;;;;;;;-142.75;100.00;77023.06;5004121;28;20015;-66
2023/05/14 07:51:46;;;;;;;;;;;;;;;-142.75;100.00;77042.75;4994425;28;19912;-69
2023/05/14 07:54:12;;;;;;;;;;;;;;;-142.75;100.00;77042.75;5002746;28;20022;-67
2023/05/14 07:56:37;;;;;;;;;;;;;;;-142.75;100.00;77003.38;5006981;28;19932;-67
2023/05/14 07:59:02;;;;;;;;;;;;;;;-142.75;100.00;77027.00;5007299;28;19909;-65
2023/05/14 08:01:27;;;;;;;;;;;;;;;-142.75;100.00;77019.13;5007642;28;19909;-65
2023/05/14 08:03:53;;;;;;;;;;;;;;;-142.75;100.00;77054.56;5007333;28;19914;-66
2023/05/14 08:06:19;;;;;;;;;;;;;;;-142.75;100.00;77036.84;5005212;28;19913;-66
2023/05/14 08:08:45;;;;;;;;;;;;;;;-142.75;100.00;77048.66;5007784;28;19917;-66
2023/05/14 08:11:10;;;;;;;;;;;;;;;-142.75;100.00;77070.31;5007853;28;19920;-66
2023/05/14 08:13:36;;;;;;;;;;;;;;;-142.75;100.00;77062.44;5007259;28;19936;-68
2023/05/14 08:16:01;;;;;;;;;;;;;;;-142.75;100.00;77036.84;5022269;28;19922;-68
2023/05/14 08:18:26;;;;;;;;;;;;;;;-142.75;100.00;77025.03;5006601;28;19913;-67
2023/05/14 08:20:52;;;;;;;;;;;;;;;-142.75;100.00;77017.16;5020832;28;19917;-66
2023/05/14 08:23:17;;;;;;;;;;;;;;;-142.75;100.00;76997.47;5003633;28;19921;-67
2023/05/14 08:25:42;;;;;;;;;;;;;;;-142.75;100.00;76979.75;5015610;28;19917;-67
2023/05/14 08:28:07;;;;;;;;;;;;;;;-142.75;100.00;76948.25;4999385;28;20622;-69
2023/05/14 08:30:33;;;;;;;;;;;;;;;-142.75;100.00;76914.78;5000404;28;20417;-67
2023/05/14 08:32:58;;;;;;;;;;;;;;;-142.75;100.00;76887.22;5006583;28;19913;-67
2023/05/14 08:35:24;;;;;;;;;;;;;;;-142.75;100.00;76812.41;5017644;28;19924;-65
2023/05/14 08:37:49;;;;;;;;;;;;;;;-142.75;100.00;76794.69;5003439;28;19917;-68
2023/05/14 08:40:14;;;;;;;;;;;;;;;-142.75;100.00;76784.88;5012380;28;19956;-68
2023/05/14 08:42:40;;;;;;;;;;;;;;;-142.75;100.00;76786.84;5003448;28;19921;-69
2023/05/14 08:45:08;;;;;;;;;;;;;;;-142.75;100.00;76757.31;4992029;28;19975;-69
2023/05/14 08:47:34;;;;;;;;;;;;;;;-142.75;100.00;76719.91;5005066;28;19967;-68
2023/05/14 08:50:03;;;;;;;;;;;;;;;-142.75;100.00;76712.03;4998348;28;19952;-66
2023/05/14 08:52:28;;;;;;;;;;;;;;;-142.75;100.00;76712.03;5002919;28;19920;-68
2023/05/14 08:54:54;;;;;;;;;;;;;;;-142.75;100.00;76652.97;5004101;28;19925;-67
2023/05/14 08:57:23;;;;;;;;;;;;;;;-142.75;100.00;76674.63;5001802;28;19940;-66
2023/05/14 08:59:48;;;;;;;;;;;;;;;-142.75;100.00;76674.63;5002380;28;20413;-67
2023/05/14 09:02:16;;;;;;;;;;;;;;;-142.75;100.00;76680.53;5006676;28;19968;-68
2023/05/14 09:04:41;;;;;;;;;;;;;;;-142.75;100.00;76660.84;5011073;28;20052;-67
2023/05/14 09:07:06;;;;;;;;;;;;;;;-142.75;100.00;76672.66;5012918;28;20008;-67
2023/05/14 09:09:31;;;;;;;;;;;;;;;-142.75;100.00;76676.59;5013065;28;19917;-66
2023/05/14 09:11:57;;;;;;;;;;;;;;;-142.75;100.00;76662.81;5012255;28;19914;-68
2023/05/14 09:14:22;;;;;;;;;;;;;;;-142.75;100.00;76678.56;5027097;28;19913;-67
2023/05/14 09:16:49;;;;;;;;;;;;;;;-142.75;100.00;76662.81;5011763;28;19913;-67
2023/05/14 09:19:14;;;;;;;;;;;;;;;-142.75;100.00;76674.63;5013192;28;19935;-67
2023/05/14 09:21:40;;;;;;;;;;;;;;;-142.75;100.00;76660.84;5013578;28;20398;-67
2023/05/14 09:24:05;;;;;;;;;;;;;;;-142.75;100.00;76625.41;5013396;28;19913;-66
2023/05/14 09:26:31;;;;;;;;;;;;;;;-142.75;100.00;76562.41;5011687;28;20377;-66
2023/05/14 09:29:00;;;;;;;;;;;;;;;-142.75;100.00;76532.88;5012413;28;19913;-67
2023/05/14 09:31:26;;;;;;;;;;;;;;;-142.75;100.00;76515.19;5013178;28;20004;-65
2023/05/14 09:33:51;;;;;;;;;;;;;;;-142.75;100.00;76523.06;5012094;28;20024;-68
2023/05/14 09:36:17;;;;;;;;;;;;;;;-142.75;100.00;76513.22;5010699;28;20015;-68
2023/05/14 09:38:42;;;;;;;;;;;;;;;-142.75;100.00;76491.56;5013422;28;19917;-68
2023/05/14 09:41:07;;;;;;;;;;;;;;;-142.75;100.00;76491.56;5012959;28;19913;-67
2023/05/14 09:43:33;;;;;;;;;;;;;;;-142.75;100.00;76467.94;5014374;28;19995;-66
2023/05/14 09:45:58;;;;;;;;;;;;;;;-142.75;100.00;76399.03;5012840;28;19913;-65
2023/05/14 09:48:24;;;;;;;;;;;;;;;-142.75;100.00;76385.25;5012652;28;20004;-66
2023/05/14 09:50:50;;;;;;;;;;;;;;;-142.75;100.00;76324.25;5012721;28;21268;-67
2023/05/14 09:53:16;;;;;;;;;;;;;;;-142.75;100.00;76282.91;5011128;28;19913;-67
2023/05/14 09:55:41;;;;;;;;;;;;;;;-142.75;100.00;76277.00;5012255;28;19944;-67
2023/05/14 09:58:07;;;;;;;;;;;;;;;-142.75;100.00;76294.72;5012687;28;19914;-68
2023/05/14 10:00:32;;;;;;;;;;;;;;;-142.75;100.00;76280.94;5011965;28;19963;-67
2023/05/14 10:02:58;;;;;;;;;;;;;;;-142.75;100.00;76294.72;5012072;28;19917;-67
2023/05/14 10:05:23;;;;;;;;;;;;;;;-142.75;100.00;76233.69;5025879;28;19921;-68
2023/05/14 10:07:50;;;;;;;;;;;;;;;-142.75;98.11;76208.09;5013343;28;19920;-67
2023/05/14 10:10:17;;;;;;;;;;;;;;;-142.75;96.25;76188.44;5012564;28;19920;-65
2023/05/14 10:12:45;;;;;;;;;;;;;;;-142.75;99.71;76164.81;5011745;28;20051;-66
2023/05/14 10:15:17;;;;;;;;;;;;;;;-142.75;96.77;76182.53;5010246;28;19929;-67
2023/05/14 10:17:47;;;;;;;;;;;;;;;-142.75;92.71;76184.50;5009169;28;20000;-67
2023/05/14 10:20:14;;;;;;;;;;;;;;;-142.75;93.22;76145.13;5008654;28;19920;-67
2023/05/14 10:22:39;;;;;;;;;;;;;;;-142.75;95.73;76109.69;5008326;28;19960;-67
2023/05/14 10:25:05;;;;;;;;;;;;;;;-142.75;96.67;76107.72;5008997;28;20333;-67
2023/05/14 10:27:31;;;;;;;;;;;;;;;-142.75;90.78;76131.34;5008069;28;19922;-67
2023/05/14 10:29:56;;;;;;;;;;;;;;;-142.75;92.80;76082.13;5009496;28;20011;-67
2023/05/14 10:32:24;;;;;;;;;;;;;;;-142.75;90.62;76109.69;5008083;28;20390;-67
2023/05/14 10:34:50;;;;;;;;;;;;;;;-142.75;93.93;76066.41;5008879;28;20008;-67
2023/05/14 10:37:20;;;;;;;;;;;;;;;-142.75;91.63;76044.75;5009267;28;19996;-68
2023/05/14 10:39:52;;;;;;;;;;;;;;;-142.75;89.83;76064.44;5008866;28;20156;-67
2023/05/14 10:42:34;;;;;;;;;;;;;;;-142.75;89.39;76030.97;5007245;28;19914;-67
2023/05/14 10:45:01;;;;;;;;;;;;;;;-142.75;87.76;75973.88;5008533;28;19917;-67
2023/05/14 10:47:30;;;;;;;;;;;;;;;-142.75;86.11;75964.03;5008616;28;20413;-67
2023/05/14 10:50:00;;;;;;;;;;;;;;;-142.75;90.80;75960.13;5008292;28;19935;-68
2023/05/14 10:52:25;;;;;;;;;;;;;;;-142.75;84.67;75971.91;5008626;28;19913;-67
2023/05/14 10:54:55;;;;;;;;;;;;;;;-142.75;86.71;75928.63;5023979;28;19924;-68
2023/05/14 10:57:21;;;;;;;;;;;;;;;-142.75;86.51;75932.56;5007923;28;19917;-67
2023/05/14 10:59:48;;;;;;;;;;;;;;;-142.75;89.31;75985.69;5007202;28;19913;-67
2023/05/14 11:02:30;;;;;;;;;;;;;;;-142.75;85.08;75940.44;5006770;28;20135;-67
2023/05/14 11:04:57;;;;;;;;;;;;;;;-142.75;84.92;75895.16;5004543;28;20003;-65
2023/05/14 11:07:26;;;;;;;;;;;;;;;-142.75;86.65;75924.69;5008783;28;19952;-66
2023/05/14 11:09:52;;;;;;;;;;;;;;;-142.75;84.68;75906.97;5008231;28;19913;-67
2023/05/14 11:12:18;;;;;;;;;;;;;;;-142.75;83.16;75881.38;5005909;28;19989;-67
2023/05/14 11:14:44;;;;;;;;;;;;;;;-142.75;82.69;75875.47;5008032;28;19913;-68
2023/05/14 11:17:09;;;;;;;;;;;;;;;-142.75;88.43;75861.69;5008541;28;19914;-67
2023/05/14 11:19:34;;;;;;;;;;;;;;;-142.75;85.76;75853.84;5008382;28;19920;-68
2023/05/14 11:22:00;;;;;;;;;;;;;;;-142.75;84.63;75855.81;5008999;28;19929;-68
2023/05/14 11:24:25;;;;;;;;;;;;;;;-142.75;83.16;75861.69;5006454;28;19913;-66
2023/05/14 11:26:54;;;;;;;;;;;;;;;-142.75;84.78;75857.78;5023555;28;19975;-69
2023/05/14 11:29:19;;;;;;;;;;;;;;;-142.75;85.67;75881.38;5024121;28;20088;-69
2023/05/14 11:31:45;;;;;;;;;;;;;;;-142.75;86.52;75871.53;5023804;28;19997;-69
2023/05/14 11:34:10;;;;;;;;;;;;;;;-142.75;86.69;75857.78;5008533;28;20337;-70
2023/05/14 11:36:35;;;;;;;;;;;;;;;-142.75;85.20;75830.22;5008413;28;21362;-68
2023/05/14 11:39:01;;;;;;;;;;;;;;;-142.75;85.29;75810.53;5023581;28;19936;-68
2023/05/14 11:41:26;;;;;;;;;;;;;;;-142.75;82.04;75842.03;5008286;28;19920;-67
2023/05/14 11:43:52;;;;;;;;;;;;;;;-142.75;84.07;75912.88;5008523;28;19971;-70
2023/05/14 11:46:18;;;;;;;;;;;;;;;-142.75;85.29;75891.22;5007608;28;20437;-69
2023/05/14 11:48:43;;;;;;;;;;;;;;;-142.75;85.53;75905.00;5006252;28;19914;-68
2023/05/14 11:51:08;;;;;;;;;;;;;;;-142.75;86.44;75869.56;5003684;28;19913;-67
2023/05/14 11:53:33;;;;;;;;;;;;;;;-142.75;84.38;75855.81;5006681;28;19975;-68
2023/05/14 11:55:58;;;;;;;;;;;;;;;-142.75;87.01;75875.47;5007484;28;19917;-67
2023/05/14 11:58:24;;;;;;;;;;;;;;;-142.75;84.95;75857.78;5007492;28;19983;-68
2023/05/14 12:00:50;;;;;;;;;;;;;;;-142.75;82.81;75814.47;5005409;28;19920;-68
2023/05/14 12:03:15;;;;;;;;;;;;;;;-142.75;83.38;75849.91;5006374;28;20306;-70
2023/05/14 12:05:53;;;;;;;;;;;;;;;-142.75;86.32;75844.00;5007824;28;19913;-70
2023/05/14 12:08:25;;;;;;;;;;;;;;;-142.75;85.87;75840.06;5003896;28;19917;-69
2023/05/14 12:10:51;;;;;;;;;;;;;;;-142.75;86.62;75830.22;4996458;28;19913;-69